Ann Arbor, MI

05:22 EDT le 23 octobre 2014 (GMT -0400)
Walker Briar Works | Change Station
CLOSE
Current Station
Stations météorologiques personnelles
Location: Ann Arbor, MI
Altitude: 961 ft
Stations météo à proximité

Alt. 961 ft 42.26 °N, 83.77 °W | Updated 1 minute ago

Ciel dégagé
Ciel dégagé
34.5 ° F
Paraît 34 ° F
N
0.0
Vent Variable Vent de SO
Gusts 1.6 mph

Aujourd'hui
Haut(e) -- | Bas -- ° F
--% Risque de précip.
Hier
Haut(e) -- | Bas -- ° F
Precip. -- pouce
7:57 AM 6:41 PM
Lune descendante, 0% visible
Pression 30.27 pouce
Visibilité -9999.0 Miles terrestres
Nuages Ciel dégagé
Refroidissement éolien 34 ° F
Point de rosée 34 ° F
Humidité 99%
Précipitations 0.00 pouce
Profondeur de la couche neigeuse Non disponible.
UV 0 sur 12
Pollen .30 sur 12
PM2.5 Bon
Flu Activity Sporadic
METAR KARB 230853Z AUTO 00000KT CLR M01/M03 A3026 RMK AO2 SLP251 I1001 I3002 T10111033 56005 $

More Conditions Fewer Conditions

Pression 30.27 pouce
Visibilité -9999.0 Miles terrestres
Nuages Ciel dégagé
Refroidissement éolien 34 ° F
Point de rosée 34 ° F
Humidité 99%
Précipitations 0.00 pouce
Profondeur de la couche neigeuse Non disponible.
UV 0 sur 12
Pollen .30 sur 12
PM2.5 Bon
Flu Activity Sporadic
METAR KARB 230853Z AUTO 00000KT CLR M01/M03 A3026 RMK AO2 SLP251 I1001 I3002 T10111033 56005 $

More Conditions Fewer Conditions

10-Day Weather Forecast

Almanac

Astronomie

Oct. 23, 2014 Lever Coucher
Temps réel 07:57 EDT 18:41 EDT
Crépuscule civil 07:28 EDT 19:09 EDT
Crépuscule nautique 06:56 EDT 19:42 EDT
Crépuscule astronomique 06:23 EDT 20:14 EDT
Lune 07:35 EDT 18:42 EDT
Durée de lumière visible 11h 40m
Longueur du jour
10h 43m
Tomorrow will be 2m 40s shorter.
Lune descendante, 0% of the Moon is Illuminated
Aujourd'hui
Lune descendante
Oct 23
Nouveau
Oct 30
Premier quartier
Nov 6
Pleine lune
Nov 14
Dernier quartier

Extrêmes aujourd'hui

State Highs State Lows

Community

WunderPhotos

Upload Photos

1,764,199 Photos téléchargées !

Nearby

Qualité de l'air

  Qualité de l'air Indice de la qualité de l'air Polluant
Hier Bon
PM2.5
Actuel Bon
PM2.5
jeudi Bon
PM2.5
vendredi Moyen
PM2.5
samedi Bon
PM2.5
dimanche Bon
PM2.5
lundi Moyen
PM2.5

Épaisseur de neige

Station Depth Altitude
Pas de nouvelles chutes de neige

Activité sismique

Ville Distance Mag. Time & Date
No recent earthquake activity has been reported nearby.
Minimum magnitude displayed is 2.5.

Températures des eaux côtières

Lieu Température
Aucun rapport de station

Stations météo à proximité